sensor_id;sensor_type;location;lat;lon;timestamp;P1;durP1;ratioP1;P2;durP2;ratioP2
48849;SDS011;63210;53.370;6.770;2022-10-23T00:01:57;16.77;;;8.45;;
48849;SDS011;63210;53.370;6.770;2022-10-23T00:04:22;19.53;;;8.57;;
48849;SDS011;63210;53.370;6.770;2022-10-23T00:06:49;20.63;;;9.85;;
48849;SDS011;63210;53.370;6.770;2022-10-23T00:09:15;17.90;;;9.57;;
48849;SDS011;63210;53.370;6.770;2022-10-23T00:11:43;20.42;;;8.23;;
48849;SDS011;63210;53.370;6.770;2022-10-23T00:14:09;23.08;;;8.82;;
48849;SDS011;63210;53.370;6.770;2022-10-23T00:16:34;27.20;;;9.30;;
48849;SDS011;63210;53.370;6.770;2022-10-23T00:18:59;28.25;;;9.25;;
48849;SDS011;63210;53.370;6.770;2022-10-23T00:21:25;19.00;;;10.30;;
48849;SDS011;63210;53.370;6.770;2022-10-23T00:23:50;19.52;;;8.25;;
48849;SDS011;63210;53.370;6.770;2022-10-23T00:26:17;20.90;;;9.10;;
48849;SDS011;63210;53.370;6.770;2022-10-23T00:28:44;17.33;;;7.88;;
48849;SDS011;63210;53.370;6.770;2022-10-23T00:31:09;22.85;;;9.43;;
48849;SDS011;63210;53.370;6.770;2022-10-23T00:33:38;19.35;;;8.70;;
48849;SDS011;63210;53.370;6.770;2022-10-23T00:36:08;25.02;;;8.57;;
48849;SDS011;63210;53.370;6.770;2022-10-23T00:38:34;18.67;;;8.90;;
48849;SDS011;63210;53.370;6.770;2022-10-23T00:41:00;22.33;;;9.00;;
48849;SDS011;63210;53.370;6.770;2022-10-23T00:43:26;20.73;;;8.50;;
48849;SDS011;63210;53.370;6.770;2022-10-23T00:45:52;24.92;;;9.68;;
48849;SDS011;63210;53.370;6.770;2022-10-23T00:48:17;25.45;;;9.27;;
48849;SDS011;63210;53.370;6.770;2022-10-23T00:50:43;23.25;;;9.50;;
48849;SDS011;63210;53.370;6.770;2022-10-23T00:53:09;24.55;;;10.38;;
48849;SDS011;63210;53.370;6.770;2022-10-23T00:55:35;21.48;;;9.98;;
48849;SDS011;63210;53.370;6.770;2022-10-23T00:58:02;27.83;;;10.05;;
48849;SDS011;63210;53.370;6.770;2022-10-23T01:00:29;23.70;;;10.23;;
48849;SDS011;63210;53.370;6.770;2022-10-23T01:02:54;23.88;;;9.70;;
48849;SDS011;63210;53.370;6.770;2022-10-23T01:05:21;25.13;;;10.00;;
48849;SDS011;63210;53.370;6.770;2022-10-23T01:12:43;25.02;;;9.95;;
48849;SDS011;63210;53.370;6.770;2022-10-23T01:17:37;20.60;;;9.77;;
48849;SDS011;63210;53.370;6.770;2022-10-23T01:27:46;24.33;;;10.32;;
48849;SDS011;63210;53.370;6.770;2022-10-23T01:30:14;23.45;;;10.73;;
48849;SDS011;63210;53.370;6.770;2022-10-23T01:32:44;28.48;;;11.77;;
48849;SDS011;63210;53.370;6.770;2022-10-23T01:35:18;32.55;;;12.65;;
48849;SDS011;63210;53.370;6.770;2022-10-23T01:37:45;25.02;;;12.05;;
48849;SDS011;63210;53.370;6.770;2022-10-23T01:40:27;29.88;;;12.98;;
48849;SDS011;63210;53.370;6.770;2022-10-23T01:42:55;32.65;;;13.07;;
48849;SDS011;63210;53.370;6.770;2022-10-23T01:45:24;23.23;;;12.05;;
48849;SDS011;63210;53.370;6.770;2022-10-23T01:47:52;24.55;;;13.90;;
48849;SDS011;63210;53.370;6.770;2022-10-23T01:50:17;26.27;;;14.57;;
48849;SDS011;63210;53.370;6.770;2022-10-23T01:52:44;25.23;;;13.32;;
48849;SDS011;63210;53.370;6.770;2022-10-23T01:55:09;36.75;;;15.52;;
48849;SDS011;63210;53.370;6.770;2022-10-23T01:57:35;31.40;;;14.18;;
48849;SDS011;63210;53.370;6.770;2022-10-23T02:00:06;28.90;;;14.68;;
48849;SDS011;63210;53.370;6.770;2022-10-23T02:02:31;30.92;;;14.73;;
48849;SDS011;63210;53.370;6.770;2022-10-23T02:05:17;30.00;;;15.07;;
48849;SDS011;63210;53.370;6.770;2022-10-23T02:07:43;27.08;;;14.82;;
48849;SDS011;63210;53.370;6.770;2022-10-23T02:10:09;30.45;;;15.68;;
48849;SDS011;63210;53.370;6.770;2022-10-23T02:12:40;27.83;;;15.38;;
48849;SDS011;63210;53.370;6.770;2022-10-23T02:18:06;28.25;;;14.65;;
48849;SDS011;63210;53.370;6.770;2022-10-23T02:20:37;27.58;;;15.73;;
48849;SDS011;63210;53.370;6.770;2022-10-23T02:25:35;31.13;;;16.40;;
48849;SDS011;63210;53.370;6.770;2022-10-23T02:28:05;32.75;;;15.63;;
48849;SDS011;63210;53.370;6.770;2022-10-23T02:30:34;25.10;;;15.90;;
48849;SDS011;63210;53.370;6.770;2022-10-23T02:33:01;27.70;;;16.08;;
48849;SDS011;63210;53.370;6.770;2022-10-23T02:35:27;32.38;;;17.23;;
48849;SDS011;63210;53.370;6.770;2022-10-23T02:37:56;40.55;;;18.40;;
48849;SDS011;63210;53.370;6.770;2022-10-23T02:40:23;34.38;;;17.65;;
48849;SDS011;63210;53.370;6.770;2022-10-23T02:43:04;32.22;;;17.95;;
48849;SDS011;63210;53.370;6.770;2022-10-23T02:45:35;22.15;;;16.85;;
48849;SDS011;63210;53.370;6.770;2022-10-23T02:48:11;37.72;;;20.17;;
48849;SDS011;63210;53.370;6.770;2022-10-23T02:53:14;26.00;;;16.20;;
48849;SDS011;63210;53.370;6.770;2022-10-23T03:01:00;26.63;;;16.67;;
48849;SDS011;63210;53.370;6.770;2022-10-23T03:03:50;25.83;;;16.58;;
48849;SDS011;63210;53.370;6.770;2022-10-23T03:06:12;30.90;;;17.75;;
48849;SDS011;63210;53.370;6.770;2022-10-23T03:08:41;28.83;;;17.70;;
48849;SDS011;63210;53.370;6.770;2022-10-23T03:11:10;39.45;;;19.98;;
48849;SDS011;63210;53.370;6.770;2022-10-23T03:13:35;27.48;;;16.92;;
48849;SDS011;63210;53.370;6.770;2022-10-23T03:16:03;27.48;;;17.73;;
48849;SDS011;63210;53.370;6.770;2022-10-23T03:18:29;27.65;;;17.50;;
48849;SDS011;63210;53.370;6.770;2022-10-23T03:20:57;29.85;;;16.92;;
48849;SDS011;63210;53.370;6.770;2022-10-23T03:23:31;25.40;;;16.88;;
48849;SDS011;63210;53.370;6.770;2022-10-23T03:25:57;27.17;;;16.52;;
48849;SDS011;63210;53.370;6.770;2022-10-23T03:28:22;27.95;;;17.10;;
48849;SDS011;63210;53.370;6.770;2022-10-23T03:30:50;30.00;;;16.00;;
48849;SDS011;63210;53.370;6.770;2022-10-23T03:33:17;25.65;;;16.38;;
48849;SDS011;63210;53.370;6.770;2022-10-23T03:35:46;27.88;;;17.23;;
48849;SDS011;63210;53.370;6.770;2022-10-23T03:38:11;26.80;;;17.33;;
48849;SDS011;63210;53.370;6.770;2022-10-23T03:40:37;26.45;;;17.00;;
48849;SDS011;63210;53.370;6.770;2022-10-23T03:43:02;24.58;;;15.93;;
48849;SDS011;63210;53.370;6.770;2022-10-23T03:45:27;27.15;;;16.75;;
48849;SDS011;63210;53.370;6.770;2022-10-23T03:47:53;28.30;;;17.73;;
48849;SDS011;63210;53.370;6.770;2022-10-23T03:50:18;31.52;;;18.05;;
48849;SDS011;63210;53.370;6.770;2022-10-23T03:52:44;24.20;;;16.42;;
48849;SDS011;63210;53.370;6.770;2022-10-23T03:55:09;25.48;;;15.82;;
48849;SDS011;63210;53.370;6.770;2022-10-23T04:00:09;22.55;;;14.88;;
48849;SDS011;63210;53.370;6.770;2022-10-23T04:02:34;19.63;;;14.82;;
48849;SDS011;63210;53.370;6.770;2022-10-23T04:04:59;24.25;;;15.20;;
48849;SDS011;63210;53.370;6.770;2022-10-23T04:07:28;30.35;;;17.40;;
48849;SDS011;63210;53.370;6.770;2022-10-23T04:09:55;27.80;;;15.73;;
48849;SDS011;63210;53.370;6.770;2022-10-23T04:12:21;24.30;;;16.02;;
48849;SDS011;63210;53.370;6.770;2022-10-23T04:14:46;30.60;;;16.98;;
48849;SDS011;63210;53.370;6.770;2022-10-23T04:17:17;28.27;;;16.08;;
48849;SDS011;63210;53.370;6.770;2022-10-23T04:19:42;29.05;;;16.38;;
48849;SDS011;63210;53.370;6.770;2022-10-23T04:22:08;27.17;;;16.23;;
48849;SDS011;63210;53.370;6.770;2022-10-23T04:24:34;23.33;;;15.68;;
48849;SDS011;63210;53.370;6.770;2022-10-23T04:27:04;22.80;;;15.05;;
48849;SDS011;63210;53.370;6.770;2022-10-23T04:29:29;20.10;;;14.10;;
48849;SDS011;63210;53.370;6.770;2022-10-23T04:31:56;19.70;;;14.00;;
48849;SDS011;63210;53.370;6.770;2022-10-23T04:34:28;21.90;;;13.60;;
48849;SDS011;63210;53.370;6.770;2022-10-23T04:36:53;20.83;;;14.63;;
48849;SDS011;63210;53.370;6.770;2022-10-23T04:39:27;20.40;;;13.32;;
48849;SDS011;63210;53.370;6.770;2022-10-23T04:41:52;18.70;;;13.00;;
48849;SDS011;63210;53.370;6.770;2022-10-23T04:44:18;17.92;;;12.35;;
48849;SDS011;63210;53.370;6.770;2022-10-23T04:46:43;19.83;;;13.68;;
48849;SDS011;63210;53.370;6.770;2022-10-23T04:49:08;18.73;;;12.75;;
48849;SDS011;63210;53.370;6.770;2022-10-23T04:51:37;18.88;;;13.48;;
48849;SDS011;63210;53.370;6.770;2022-10-23T04:54:02;23.00;;;12.88;;
48849;SDS011;63210;53.370;6.770;2022-10-23T04:56:30;22.92;;;15.68;;
48849;SDS011;63210;53.370;6.770;2022-10-23T04:59:02;30.25;;;16.63;;
48849;SDS011;63210;53.370;6.770;2022-10-23T05:01:27;24.13;;;15.18;;
48849;SDS011;63210;53.370;6.770;2022-10-23T05:03:53;28.15;;;16.00;;
48849;SDS011;63210;53.370;6.770;2022-10-23T05:06:26;26.17;;;16.48;;
48849;SDS011;63210;53.370;6.770;2022-10-23T05:08:51;30.45;;;16.75;;
48849;SDS011;63210;53.370;6.770;2022-10-23T05:11:16;25.27;;;16.63;;
48849;SDS011;63210;53.370;6.770;2022-10-23T05:13:41;25.40;;;15.68;;
48849;SDS011;63210;53.370;6.770;2022-10-23T05:18:39;24.23;;;15.70;;
48849;SDS011;63210;53.370;6.770;2022-10-23T05:21:09;25.52;;;16.48;;
48849;SDS011;63210;53.370;6.770;2022-10-23T05:23:35;28.08;;;16.27;;
48849;SDS011;63210;53.370;6.770;2022-10-23T05:26:02;27.90;;;17.63;;
48849;SDS011;63210;53.370;6.770;2022-10-23T05:28:28;25.50;;;15.13;;
48849;SDS011;63210;53.370;6.770;2022-10-23T05:30:54;28.48;;;16.42;;
48849;SDS011;63210;53.370;6.770;2022-10-23T05:33:19;29.85;;;16.20;;
48849;SDS011;63210;53.370;6.770;2022-10-23T05:35:44;24.83;;;14.85;;
48849;SDS011;63210;53.370;6.770;2022-10-23T05:38:10;29.52;;;15.57;;
48849;SDS011;63210;53.370;6.770;2022-10-23T05:40:40;25.27;;;15.18;;
48849;SDS011;63210;53.370;6.770;2022-10-23T05:43:05;24.00;;;15.47;;
48849;SDS011;63210;53.370;6.770;2022-10-23T05:45:33;23.98;;;14.77;;
48849;SDS011;63210;53.370;6.770;2022-10-23T05:47:59;24.58;;;15.40;;
48849;SDS011;63210;53.370;6.770;2022-10-23T05:50:24;24.48;;;15.50;;
48849;SDS011;63210;53.370;6.770;2022-10-23T05:52:49;26.33;;;15.02;;
48849;SDS011;63210;53.370;6.770;2022-10-23T05:55:18;31.77;;;16.25;;
48849;SDS011;63210;53.370;6.770;2022-10-23T05:57:43;21.25;;;14.60;;
48849;SDS011;63210;53.370;6.770;2022-10-23T06:00:11;23.90;;;15.18;;
48849;SDS011;63210;53.370;6.770;2022-10-23T06:02:37;27.27;;;15.30;;
48849;SDS011;63210;53.370;6.770;2022-10-23T06:05:02;19.75;;;13.35;;
48849;SDS011;63210;53.370;6.770;2022-10-23T06:07:36;19.70;;;15.07;;
48849;SDS011;63210;53.370;6.770;2022-10-23T06:10:02;26.55;;;15.65;;
48849;SDS011;63210;53.370;6.770;2022-10-23T06:12:27;22.98;;;13.70;;
48849;SDS011;63210;53.370;6.770;2022-10-23T06:14:59;20.90;;;13.20;;
48849;SDS011;63210;53.370;6.770;2022-10-23T06:17:27;22.65;;;14.75;;
48849;SDS011;63210;53.370;6.770;2022-10-23T06:19:53;22.20;;;15.68;;
48849;SDS011;63210;53.370;6.770;2022-10-23T06:22:25;24.98;;;14.95;;
48849;SDS011;63210;53.370;6.770;2022-10-23T06:24:50;26.35;;;15.90;;
48849;SDS011;63210;53.370;6.770;2022-10-23T06:27:16;26.73;;;15.43;;
48849;SDS011;63210;53.370;6.770;2022-10-23T06:29:41;25.55;;;15.52;;
48849;SDS011;63210;53.370;6.770;2022-10-23T06:32:15;25.50;;;16.02;;
48849;SDS011;63210;53.370;6.770;2022-10-23T06:34:44;24.75;;;16.02;;
48849;SDS011;63210;53.370;6.770;2022-10-23T06:37:11;29.65;;;16.35;;
48849;SDS011;63210;53.370;6.770;2022-10-23T06:39:43;26.27;;;15.43;;
48849;SDS011;63210;53.370;6.770;2022-10-23T06:42:11;26.60;;;14.02;;
48849;SDS011;63210;53.370;6.770;2022-10-23T06:44:40;21.85;;;14.00;;
48849;SDS011;63210;53.370;6.770;2022-10-23T06:47:05;24.67;;;14.77;;
48849;SDS011;63210;53.370;6.770;2022-10-23T06:49:37;23.92;;;14.15;;
48849;SDS011;63210;53.370;6.770;2022-10-23T06:52:04;21.52;;;14.63;;
48849;SDS011;63210;53.370;6.770;2022-10-23T06:54:33;27.27;;;15.23;;
48849;SDS011;63210;53.370;6.770;2022-10-23T06:56:58;26.15;;;16.00;;
48849;SDS011;63210;53.370;6.770;2022-10-23T06:59:23;25.42;;;15.00;;
48849;SDS011;63210;53.370;6.770;2022-10-23T07:01:52;30.90;;;16.17;;
48849;SDS011;63210;53.370;6.770;2022-10-23T07:04:17;29.10;;;17.52;;
48849;SDS011;63210;53.370;6.770;2022-10-23T07:06:45;26.60;;;15.00;;
48849;SDS011;63210;53.370;6.770;2022-10-23T07:09:10;23.80;;;16.02;;
48849;SDS011;63210;53.370;6.770;2022-10-23T07:11:36;25.58;;;18.00;;
48849;SDS011;63210;53.370;6.770;2022-10-23T07:14:01;27.92;;;17.15;;
48849;SDS011;63210;53.370;6.770;2022-10-23T07:16:29;28.42;;;17.70;;
48849;SDS011;63210;53.370;6.770;2022-10-23T07:18:56;28.23;;;17.27;;
48849;SDS011;63210;53.370;6.770;2022-10-23T07:21:33;28.33;;;16.33;;
48849;SDS011;63210;53.370;6.770;2022-10-23T07:23:59;23.92;;;15.25;;
48849;SDS011;63210;53.370;6.770;2022-10-23T07:26:29;31.83;;;16.75;;
48849;SDS011;63210;53.370;6.770;2022-10-23T07:28:56;27.15;;;16.73;;
48849;SDS011;63210;53.370;6.770;2022-10-23T07:31:24;24.38;;;15.35;;
48849;SDS011;63210;53.370;6.770;2022-10-23T07:33:53;26.83;;;16.40;;
48849;SDS011;63210;53.370;6.770;2022-10-23T07:36:21;26.65;;;15.50;;
48849;SDS011;63210;53.370;6.770;2022-10-23T07:38:47;20.65;;;14.85;;
48849;SDS011;63210;53.370;6.770;2022-10-23T07:41:12;29.83;;;14.48;;
48849;SDS011;63210;53.370;6.770;2022-10-23T07:43:40;21.35;;;15.10;;
48849;SDS011;63210;53.370;6.770;2022-10-23T07:46:09;23.45;;;14.25;;
48849;SDS011;63210;53.370;6.770;2022-10-23T07:48:40;20.25;;;14.00;;
48849;SDS011;63210;53.370;6.770;2022-10-23T07:51:06;20.08;;;14.40;;
48849;SDS011;63210;53.370;6.770;2022-10-23T07:53:32;23.77;;;14.45;;
48849;SDS011;63210;53.370;6.770;2022-10-23T07:56:01;19.83;;;12.68;;
48849;SDS011;63210;53.370;6.770;2022-10-23T07:58:27;17.58;;;12.13;;
48849;SDS011;63210;53.370;6.770;2022-10-23T08:00:58;19.63;;;12.38;;
48849;SDS011;63210;53.370;6.770;2022-10-23T08:03:25;23.90;;;12.13;;
48849;SDS011;63210;53.370;6.770;2022-10-23T08:05:53;22.63;;;12.88;;
48849;SDS011;63210;53.370;6.770;2022-10-23T08:08:19;17.35;;;12.63;;
48849;SDS011;63210;53.370;6.770;2022-10-23T08:10:48;17.80;;;12.15;;
48849;SDS011;63210;53.370;6.770;2022-10-23T08:13:20;18.35;;;11.00;;
48849;SDS011;63210;53.370;6.770;2022-10-23T08:15:51;20.05;;;12.80;;
48849;SDS011;63210;53.370;6.770;2022-10-23T08:18:23;26.40;;;13.73;;
48849;SDS011;63210;53.370;6.770;2022-10-23T08:20:49;29.45;;;13.60;;
48849;SDS011;63210;53.370;6.770;2022-10-23T08:25:57;19.65;;;11.52;;
48849;SDS011;63210;53.370;6.770;2022-10-23T08:28:24;17.98;;;10.45;;
48849;SDS011;63210;53.370;6.770;2022-10-23T08:30:49;17.35;;;10.88;;
48849;SDS011;63210;53.370;6.770;2022-10-23T08:33:17;17.40;;;11.10;;
48849;SDS011;63210;53.370;6.770;2022-10-23T08:35:45;19.45;;;11.95;;
48849;SDS011;63210;53.370;6.770;2022-10-23T08:38:10;16.48;;;8.93;;
48849;SDS011;63210;53.370;6.770;2022-10-23T08:40:45;15.93;;;9.25;;
48849;SDS011;63210;53.370;6.770;2022-10-23T08:43:15;21.58;;;9.35;;
48849;SDS011;63210;53.370;6.770;2022-10-23T08:45:50;16.77;;;10.35;;
48849;SDS011;63210;53.370;6.770;2022-10-23T08:50:46;15.00;;;9.50;;
48849;SDS011;63210;53.370;6.770;2022-10-23T08:53:26;13.43;;;9.73;;
48849;SDS011;63210;53.370;6.770;2022-10-23T09:01:39;16.92;;;10.25;;
48849;SDS011;63210;53.370;6.770;2022-10-23T09:04:12;17.17;;;10.90;;
48849;SDS011;63210;53.370;6.770;2022-10-23T09:06:47;16.15;;;10.63;;
48849;SDS011;63210;53.370;6.770;2022-10-23T09:19:36;20.45;;;10.05;;
48849;SDS011;63210;53.370;6.770;2022-10-23T09:22:05;21.42;;;11.10;;
48849;SDS011;63210;53.370;6.770;2022-10-23T09:24:30;21.20;;;11.13;;
48849;SDS011;63210;53.370;6.770;2022-10-23T09:29:30;20.97;;;10.60;;
48849;SDS011;63210;53.370;6.770;2022-10-23T09:31:58;13.07;;;8.20;;
48849;SDS011;63210;53.370;6.770;2022-10-23T09:34:24;13.10;;;9.10;;
48849;SDS011;63210;53.370;6.770;2022-10-23T09:36:51;12.15;;;6.75;;
48849;SDS011;63210;53.370;6.770;2022-10-23T09:39:23;13.75;;;7.80;;
48849;SDS011;63210;53.370;6.770;2022-10-23T09:44:21;14.57;;;8.15;;
48849;SDS011;63210;53.370;6.770;2022-10-23T09:49:37;14.18;;;8.13;;
48849;SDS011;63210;53.370;6.770;2022-10-23T09:54:54;11.98;;;9.35;;
48849;SDS011;63210;53.370;6.770;2022-10-23T09:57:30;16.50;;;9.90;;
48849;SDS011;63210;53.370;6.770;2022-10-23T10:00:00;13.20;;;9.45;;
48849;SDS011;63210;53.370;6.770;2022-10-23T10:02:28;17.38;;;9.98;;
48849;SDS011;63210;53.370;6.770;2022-10-23T10:04:54;15.68;;;9.43;;
48849;SDS011;63210;53.370;6.770;2022-10-23T10:07:23;13.50;;;9.88;;
48849;SDS011;63210;53.370;6.770;2022-10-23T10:09:49;14.93;;;10.20;;
48849;SDS011;63210;53.370;6.770;2022-10-23T10:20:30;16.85;;;9.75;;
48849;SDS011;63210;53.370;6.770;2022-10-23T10:25:40;13.55;;;10.10;;
48849;SDS011;63210;53.370;6.770;2022-10-23T10:33:17;19.38;;;11.52;;
48849;SDS011;63210;53.370;6.770;2022-10-23T10:35:57;14.15;;;8.77;;
48849;SDS011;63210;53.370;6.770;2022-10-23T10:38:31;16.42;;;9.63;;
48849;SDS011;63210;53.370;6.770;2022-10-23T10:46:10;16.42;;;10.40;;
48849;SDS011;63210;53.370;6.770;2022-10-23T10:48:50;16.05;;;10.80;;
48849;SDS011;63210;53.370;6.770;2022-10-23T10:51:26;12.52;;;9.40;;
48849;SDS011;63210;53.370;6.770;2022-10-23T10:54:17;15.90;;;10.45;;
48849;SDS011;63210;53.370;6.770;2022-10-23T10:56:45;16.67;;;9.70;;
48849;SDS011;63210;53.370;6.770;2022-10-23T10:59:32;15.48;;;9.88;;
48849;SDS011;63210;53.370;6.770;2022-10-23T11:02:11;12.40;;;8.82;;
48849;SDS011;63210;53.370;6.770;2022-10-23T11:04:44;14.07;;;10.45;;
48849;SDS011;63210;53.370;6.770;2022-10-23T11:07:12;16.95;;;8.88;;
48849;SDS011;63210;53.370;6.770;2022-10-23T11:09:39;14.77;;;9.27;;
48849;SDS011;63210;53.370;6.770;2022-10-23T11:12:04;14.13;;;8.93;;
48849;SDS011;63210;53.370;6.770;2022-10-23T11:14:30;12.57;;;7.40;;
48849;SDS011;63210;53.370;6.770;2022-10-23T11:19:45;13.45;;;6.38;;
48849;SDS011;63210;53.370;6.770;2022-10-23T11:22:23;10.43;;;6.73;;
48849;SDS011;63210;53.370;6.770;2022-10-23T11:25:12;10.30;;;6.97;;
48849;SDS011;63210;53.370;6.770;2022-10-23T11:28:01;14.50;;;7.53;;
48849;SDS011;63210;53.370;6.770;2022-10-23T11:36:15;15.07;;;7.05;;
48849;SDS011;63210;53.370;6.770;2022-10-23T11:38:48;10.82;;;6.65;;
48849;SDS011;63210;53.370;6.770;2022-10-23T11:46:27;14.68;;;7.70;;
48849;SDS011;63210;53.370;6.770;2022-10-23T11:48:54;12.15;;;7.78;;
48849;SDS011;63210;53.370;6.770;2022-10-23T11:59:25;16.83;;;7.60;;
48849;SDS011;63210;53.370;6.770;2022-10-23T12:01:51;8.45;;;6.28;;
48849;SDS011;63210;53.370;6.770;2022-10-23T12:04:21;9.43;;;6.28;;
48849;SDS011;63210;53.370;6.770;2022-10-23T12:09:22;9.35;;;5.78;;
48849;SDS011;63210;53.370;6.770;2022-10-23T12:14:31;8.80;;;5.60;;
48849;SDS011;63210;53.370;6.770;2022-10-23T12:16:57;10.13;;;6.05;;
48849;SDS011;63210;53.370;6.770;2022-10-23T12:19:23;8.02;;;5.15;;
48849;SDS011;63210;53.370;6.770;2022-10-23T12:21:50;14.43;;;5.93;;
48849;SDS011;63210;53.370;6.770;2022-10-23T12:24:20;11.48;;;5.72;;
48849;SDS011;63210;53.370;6.770;2022-10-23T12:35:11;14.77;;;6.03;;
48849;SDS011;63210;53.370;6.770;2022-10-23T12:40:07;10.85;;;5.38;;
48849;SDS011;63210;53.370;6.770;2022-10-23T12:42:33;10.65;;;5.85;;
48849;SDS011;63210;53.370;6.770;2022-10-23T12:44:59;8.10;;;5.43;;
48849;SDS011;63210;53.370;6.770;2022-10-23T12:47:24;8.23;;;5.45;;
48849;SDS011;63210;53.370;6.770;2022-10-23T12:49:50;8.52;;;5.55;;
48849;SDS011;63210;53.370;6.770;2022-10-23T12:52:17;8.02;;;5.35;;
48849;SDS011;63210;53.370;6.770;2022-10-23T12:54:42;17.45;;;5.47;;
48849;SDS011;63210;53.370;6.770;2022-10-23T12:57:14;6.90;;;4.85;;
48849;SDS011;63210;53.370;6.770;2022-10-23T12:59:42;10.40;;;5.97;;
48849;SDS011;63210;53.370;6.770;2022-10-23T13:02:24;11.82;;;6.15;;
48849;SDS011;63210;53.370;6.770;2022-10-23T13:04:51;11.07;;;5.40;;
48849;SDS011;63210;53.370;6.770;2022-10-23T13:07:17;11.65;;;6.22;;
48849;SDS011;63210;53.370;6.770;2022-10-23T13:09:43;12.60;;;6.60;;
48849;SDS011;63210;53.370;6.770;2022-10-23T13:12:28;11.05;;;6.15;;
48849;SDS011;63210;53.370;6.770;2022-10-23T13:14:59;12.73;;;5.65;;
48849;SDS011;63210;53.370;6.770;2022-10-23T13:17:33;11.80;;;5.50;;
48849;SDS011;63210;53.370;6.770;2022-10-23T13:22:33;9.27;;;4.90;;
48849;SDS011;63210;53.370;6.770;2022-10-23T13:24:59;13.37;;;5.37;;
48849;SDS011;63210;53.370;6.770;2022-10-23T13:27:25;9.87;;;4.90;;
48849;SDS011;63210;53.370;6.770;2022-10-23T13:29:51;10.00;;;5.05;;
48849;SDS011;63210;53.370;6.770;2022-10-23T13:32:23;8.80;;;4.45;;
48849;SDS011;63210;53.370;6.770;2022-10-23T13:34:52;7.55;;;5.10;;
48849;SDS011;63210;53.370;6.770;2022-10-23T13:39:44;8.98;;;4.95;;
48849;SDS011;63210;53.370;6.770;2022-10-23T13:42:13;10.32;;;4.00;;
48849;SDS011;63210;53.370;6.770;2022-10-23T13:44:39;11.57;;;4.60;;
48849;SDS011;63210;53.370;6.770;2022-10-23T13:47:04;10.23;;;4.60;;
48849;SDS011;63210;53.370;6.770;2022-10-23T13:49:30;10.40;;;4.95;;
48849;SDS011;63210;53.370;6.770;2022-10-23T13:51:55;12.43;;;5.55;;
48849;SDS011;63210;53.370;6.770;2022-10-23T13:54:24;9.43;;;4.57;;
48849;SDS011;63210;53.370;6.770;2022-10-23T13:56:50;7.88;;;4.55;;
48849;SDS011;63210;53.370;6.770;2022-10-23T13:59:15;7.38;;;4.45;;
48849;SDS011;63210;53.370;6.770;2022-10-23T14:01:41;5.55;;;4.07;;
48849;SDS011;63210;53.370;6.770;2022-10-23T14:04:07;9.20;;;4.60;;
48849;SDS011;63210;53.370;6.770;2022-10-23T14:06:33;10.27;;;4.28;;
48849;SDS011;63210;53.370;6.770;2022-10-23T14:08:58;9.70;;;4.28;;
48849;SDS011;63210;53.370;6.770;2022-10-23T14:11:23;8.83;;;3.63;;
48849;SDS011;63210;53.370;6.770;2022-10-23T14:13:49;7.90;;;4.20;;
48849;SDS011;63210;53.370;6.770;2022-10-23T14:16:15;8.32;;;4.32;;
48849;SDS011;63210;53.370;6.770;2022-10-23T14:18:41;9.63;;;4.20;;
48849;SDS011;63210;53.370;6.770;2022-10-23T14:21:06;10.18;;;4.10;;
48849;SDS011;63210;53.370;6.770;2022-10-23T14:23:32;8.18;;;4.20;;
48849;SDS011;63210;53.370;6.770;2022-10-23T14:26:04;10.90;;;4.43;;
48849;SDS011;63210;53.370;6.770;2022-10-23T14:28:29;7.38;;;3.67;;
48849;SDS011;63210;53.370;6.770;2022-10-23T14:30:54;9.63;;;4.28;;
48849;SDS011;63210;53.370;6.770;2022-10-23T14:33:19;8.57;;;4.63;;
48849;SDS011;63210;53.370;6.770;2022-10-23T14:35:45;8.15;;;4.10;;
48849;SDS011;63210;53.370;6.770;2022-10-23T14:38:10;8.02;;;4.20;;
48849;SDS011;63210;53.370;6.770;2022-10-23T14:40:36;7.30;;;4.38;;
48849;SDS011;63210;53.370;6.770;2022-10-23T14:43:01;14.43;;;4.45;;
48849;SDS011;63210;53.370;6.770;2022-10-23T14:45:26;11.70;;;4.63;;
48849;SDS011;63210;53.370;6.770;2022-10-23T14:47:53;9.95;;;4.60;;
48849;SDS011;63210;53.370;6.770;2022-10-23T14:50:18;6.78;;;4.35;;
48849;SDS011;63210;53.370;6.770;2022-10-23T14:52:44;9.90;;;4.70;;
48849;SDS011;63210;53.370;6.770;2022-10-23T14:55:09;6.80;;;4.27;;
48849;SDS011;63210;53.370;6.770;2022-10-23T14:57:34;9.60;;;4.30;;
48849;SDS011;63210;53.370;6.770;2022-10-23T14:59:59;7.28;;;4.00;;
48849;SDS011;63210;53.370;6.770;2022-10-23T15:02:25;6.20;;;4.35;;
48849;SDS011;63210;53.370;6.770;2022-10-23T15:04:50;10.37;;;4.17;;
48849;SDS011;63210;53.370;6.770;2022-10-23T15:07:15;7.03;;;4.17;;
48849;SDS011;63210;53.370;6.770;2022-10-23T15:09:40;12.13;;;4.00;;
48849;SDS011;63210;53.370;6.770;2022-10-23T15:12:05;12.53;;;4.40;;
48849;SDS011;63210;53.370;6.770;2022-10-23T15:14:31;10.20;;;4.65;;
48849;SDS011;63210;53.370;6.770;2022-10-23T15:16:56;8.52;;;4.50;;
48849;SDS011;63210;53.370;6.770;2022-10-23T15:19:22;6.70;;;4.93;;
48849;SDS011;63210;53.370;6.770;2022-10-23T15:21:47;7.07;;;4.57;;
48849;SDS011;63210;53.370;6.770;2022-10-23T15:24:13;11.57;;;4.78;;
48849;SDS011;63210;53.370;6.770;2022-10-23T15:26:38;8.40;;;4.65;;
48849;SDS011;63210;53.370;6.770;2022-10-23T15:29:06;6.88;;;4.75;;
48849;SDS011;63210;53.370;6.770;2022-10-23T15:34:11;10.43;;;4.53;;
48849;SDS011;63210;53.370;6.770;2022-10-23T15:36:37;8.15;;;4.32;;
48849;SDS011;63210;53.370;6.770;2022-10-23T15:39:07;7.53;;;3.55;;
48849;SDS011;63210;53.370;6.770;2022-10-23T15:41:33;8.68;;;5.03;;
48849;SDS011;63210;53.370;6.770;2022-10-23T15:43:59;12.07;;;4.30;;
48849;SDS011;63210;53.370;6.770;2022-10-23T15:46:25;13.50;;;4.47;;
48849;SDS011;63210;53.370;6.770;2022-10-23T15:48:50;12.43;;;4.45;;
48849;SDS011;63210;53.370;6.770;2022-10-23T15:51:16;9.68;;;4.57;;
48849;SDS011;63210;53.370;6.770;2022-10-23T15:53:41;11.13;;;4.63;;
48849;SDS011;63210;53.370;6.770;2022-10-23T15:56:06;7.47;;;4.40;;
48849;SDS011;63210;53.370;6.770;2022-10-23T15:58:31;6.40;;;4.53;;
48849;SDS011;63210;53.370;6.770;2022-10-23T16:00:56;10.77;;;4.37;;
48849;SDS011;63210;53.370;6.770;2022-10-23T16:03:23;9.57;;;4.70;;
48849;SDS011;63210;53.370;6.770;2022-10-23T16:05:48;9.93;;;5.20;;
48849;SDS011;63210;53.370;6.770;2022-10-23T16:08:13;8.97;;;4.43;;
48849;SDS011;63210;53.370;6.770;2022-10-23T16:10:39;7.47;;;3.97;;
48849;SDS011;63210;53.370;6.770;2022-10-23T16:13:04;5.47;;;4.22;;
48849;SDS011;63210;53.370;6.770;2022-10-23T16:15:29;11.13;;;5.00;;
48849;SDS011;63210;53.370;6.770;2022-10-23T16:17:54;11.00;;;4.45;;
48849;SDS011;63210;53.370;6.770;2022-10-23T16:20:20;8.93;;;4.23;;
48849;SDS011;63210;53.370;6.770;2022-10-23T16:22:45;7.67;;;4.17;;
48849;SDS011;63210;53.370;6.770;2022-10-23T16:25:11;8.68;;;4.18;;
48849;SDS011;63210;53.370;6.770;2022-10-23T16:27:36;9.87;;;4.40;;
48849;SDS011;63210;53.370;6.770;2022-10-23T16:30:01;10.23;;;3.97;;
48849;SDS011;63210;53.370;6.770;2022-10-23T16:32:27;14.27;;;4.72;;
48849;SDS011;63210;53.370;6.770;2022-10-23T16:34:52;7.67;;;4.50;;
48849;SDS011;63210;53.370;6.770;2022-10-23T16:37:17;11.37;;;3.73;;
48849;SDS011;63210;53.370;6.770;2022-10-23T16:39:42;5.60;;;3.57;;
48849;SDS011;63210;53.370;6.770;2022-10-23T16:42:07;6.43;;;3.70;;
48849;SDS011;63210;53.370;6.770;2022-10-23T16:44:33;10.30;;;4.78;;
48849;SDS011;63210;53.370;6.770;2022-10-23T16:46:58;5.63;;;4.03;;